createdAt,value
2018-07-24T00:00:45.134Z,13.07
2018-07-24T00:03:14.435Z,12.73
2018-07-24T00:05:44.296Z,12.70
2018-07-24T00:08:13.564Z,13.43
2018-07-24T00:10:43.038Z,12.47
2018-07-24T00:13:12.384Z,12.80
2018-07-24T00:15:41.845Z,12.10
2018-07-24T00:18:11.414Z,11.70
2018-07-24T00:20:40.754Z,12.73
2018-07-24T00:23:10.038Z,12.33
2018-07-24T00:25:39.364Z,13.33
2018-07-24T00:28:08.568Z,13.10
2018-07-24T00:30:37.738Z,12.77
2018-07-24T00:33:07.164Z,12.13
2018-07-24T00:35:36.605Z,12.03
2018-07-24T00:38:06.224Z,12.50
2018-07-24T00:40:35.559Z,12.97
2018-07-24T00:43:04.824Z,12.73
2018-07-24T00:45:34.194Z,12.50
2018-07-24T00:48:03.274Z,12.30
2018-07-24T00:50:32.564Z,11.70
2018-07-24T00:53:01.778Z,12.03
2018-07-24T00:55:31.154Z,12.03
2018-07-24T00:58:00.276Z,12.10
2018-07-24T01:00:29.243Z,12.43
2018-07-24T01:02:58.378Z,13.03
2018-07-24T01:05:27.848Z,12.53
2018-07-24T01:07:56.973Z,12.37
2018-07-24T01:10:25.484Z,12.37
2018-07-24T01:12:54.433Z,12.80
2018-07-24T01:15:23.492Z,12.90
2018-07-24T01:17:52.638Z,13.20
2018-07-24T01:20:21.743Z,13.67
2018-07-24T01:22:50.734Z,12.63
2018-07-24T01:25:19.879Z,12.83
2018-07-24T01:27:48.875Z,13.73
2018-07-24T01:30:18.068Z,14.33
2018-07-24T01:32:47.023Z,14.20
2018-07-24T01:35:16.008Z,14.70
2018-07-24T01:37:45.132Z,14.50
2018-07-24T01:40:14.260Z,14.97
2018-07-24T01:42:43.271Z,13.97
2018-07-24T01:45:12.229Z,15.07
2018-07-24T01:47:41.107Z,15.37
2018-07-24T01:50:10.240Z,15.10
2018-07-24T01:52:39.199Z,14.73
2018-07-24T01:55:08.558Z,14.33
2018-07-24T01:57:37.697Z,15.03
2018-07-24T02:00:07.129Z,14.57
2018-07-24T02:02:36.064Z,14.50
2018-07-24T02:05:05.243Z,13.83
2018-07-24T02:07:34.148Z,13.67
2018-07-24T02:10:03.410Z,14.23
2018-07-24T02:12:32.387Z,14.87
2018-07-24T02:15:01.334Z,17.90
2018-07-24T02:17:30.229Z,19.13
2018-07-24T02:19:59.261Z,18.27
2018-07-24T02:22:28.228Z,17.47
2018-07-24T02:24:57.229Z,16.23
2018-07-24T02:27:26.389Z,15.90
2018-07-24T02:29:55.532Z,15.63
2018-07-24T02:32:31.820Z,15.87
2018-07-24T02:35:00.748Z,14.87
2018-07-24T02:37:29.665Z,15.43
2018-07-24T02:39:58.659Z,15.40
2018-07-24T02:42:27.604Z,14.47
2018-07-24T02:44:56.615Z,14.30
2018-07-24T02:47:25.505Z,14.93
2018-07-24T02:49:54.430Z,14.80
2018-07-24T02:52:23.507Z,15.83
2018-07-24T02:54:52.587Z,15.10
2018-07-24T02:57:21.443Z,14.57
2018-07-24T02:59:50.569Z,15.43
2018-07-24T03:02:20.038Z,16.70
2018-07-24T03:04:50.269Z,16.13
2018-07-24T03:07:19.299Z,16.43
2018-07-24T03:09:48.269Z,16.83
2018-07-24T03:12:17.254Z,16.90
2018-07-24T03:14:46.187Z,16.77
2018-07-24T03:17:15.266Z,15.33
2018-07-24T03:19:44.238Z,16.67
2018-07-24T03:22:13.264Z,15.20
2018-07-24T03:24:43.044Z,15.77
2018-07-24T03:27:12.245Z,15.10
2018-07-24T03:29:41.192Z,15.07
2018-07-24T03:32:10.190Z,15.40
2018-07-24T03:34:39.093Z,16.03
2018-07-24T03:37:08.009Z,15.67
2018-07-24T03:39:37.143Z,16.23
2018-07-24T03:42:06.378Z,15.43
2018-07-24T03:44:35.474Z,15.13
2018-07-24T03:47:04.466Z,16.87
2018-07-24T03:49:33.439Z,18.53
2018-07-24T03:52:02.401Z,19.17
2018-07-24T03:54:32.265Z,18.20
2018-07-24T03:57:01.213Z,20.33
2018-07-24T03:59:30.132Z,19.43
2018-07-24T04:01:59.068Z,18.77
2018-07-24T04:04:28.008Z,18.07
2018-07-24T04:06:56.868Z,16.93
2018-07-24T04:09:26.020Z,17.40
2018-07-24T04:11:55.169Z,18.00
2018-07-24T04:14:24.508Z,19.17
2018-07-24T04:16:53.604Z,17.87
2018-07-24T04:19:22.554Z,17.83
2018-07-24T04:21:51.554Z,16.83
2018-07-24T04:24:20.654Z,16.90
2018-07-24T04:26:49.745Z,18.00
2018-07-24T04:29:18.809Z,17.10
2018-07-24T04:31:48.054Z,17.23
2018-07-24T04:34:17.012Z,16.33
2018-07-24T04:36:45.864Z,17.07
2018-07-24T04:39:14.815Z,17.57
2018-07-24T04:41:43.956Z,17.63
2018-07-24T04:44:13.683Z,19.13
2018-07-24T04:46:42.693Z,17.93
2018-07-24T04:49:11.652Z,17.77
2018-07-24T04:51:40.683Z,17.47
2018-07-24T04:54:09.762Z,17.30
2018-07-24T04:56:38.916Z,17.43
2018-07-24T04:59:07.949Z,18.70
2018-07-24T05:01:36.912Z,17.97
2018-07-24T05:04:05.959Z,18.83
2018-07-24T05:06:35.054Z,18.30
2018-07-24T05:09:06.296Z,18.43
2018-07-24T05:11:35.256Z,19.43
2018-07-24T05:14:04.401Z,18.63
2018-07-24T05:16:33.368Z,19.30
2018-07-24T05:19:02.446Z,18.80
2018-07-24T05:21:31.645Z,18.83
2018-07-24T05:24:00.599Z,18.40
2018-07-24T05:26:29.628Z,18.97
2018-07-24T05:28:58.756Z,19.80
2018-07-24T05:31:27.940Z,18.20
2018-07-24T05:33:57.247Z,17.83
2018-07-24T05:36:26.481Z,17.73
2018-07-24T05:38:56.333Z,18.53
2018-07-24T05:41:25.279Z,18.80
2018-07-24T05:43:54.545Z,18.17
2018-07-24T05:46:23.488Z,17.47
2018-07-24T05:48:52.523Z,17.10
2018-07-24T05:51:22.157Z,17.63
2018-07-24T05:53:51.333Z,17.43
2018-07-24T05:56:20.272Z,18.17
2018-07-24T05:58:49.298Z,18.23
2018-07-24T06:01:18.417Z,18.30
2018-07-24T06:03:47.539Z,18.20
2018-07-24T06:06:16.616Z,17.17
2018-07-24T06:08:45.658Z,16.83
2018-07-24T06:11:14.928Z,18.13
2018-07-24T06:13:43.888Z,18.07
2018-07-24T06:16:13.041Z,18.30
2018-07-24T06:18:42.119Z,17.83
2018-07-24T06:21:11.224Z,16.13
2018-07-24T06:23:40.471Z,16.33
2018-07-24T06:26:09.428Z,17.50
2018-07-24T06:28:38.847Z,17.93
2018-07-24T06:31:07.792Z,16.63
2018-07-24T06:33:37.023Z,16.37
2018-07-24T06:36:06.149Z,17.07
2018-07-24T06:38:35.243Z,16.87
2018-07-24T06:41:04.228Z,17.20
2018-07-24T06:43:33.437Z,17.50
2018-07-24T06:46:02.431Z,17.07
2018-07-24T06:48:31.749Z,18.20
2018-07-24T06:51:00.910Z,17.33
2018-07-24T06:53:30.502Z,15.87
2018-07-24T06:55:59.627Z,19.37
2018-07-24T06:58:28.953Z,16.83
2018-07-24T07:00:58.888Z,16.77
2018-07-24T07:03:28.399Z,15.77
2018-07-24T07:05:57.622Z,16.10
2018-07-24T07:08:27.020Z,15.23
2018-07-24T07:10:56.212Z,14.73
2018-07-24T07:13:25.674Z,14.73
2018-07-24T07:15:55.021Z,15.57
2018-07-24T07:18:24.844Z,15.00
2018-07-24T07:20:53.959Z,14.40
2018-07-24T07:23:23.529Z,13.77
2018-07-24T07:25:53.943Z,14.07
2018-07-24T07:28:23.516Z,13.57
2018-07-24T07:30:52.923Z,13.73
2018-07-24T07:33:22.631Z,15.47
2018-07-24T07:35:52.253Z,14.23
2018-07-24T07:38:21.806Z,14.23
2018-07-24T07:40:51.302Z,13.40
2018-07-24T07:43:20.892Z,12.53
2018-07-24T07:45:50.472Z,12.50
2018-07-24T07:48:19.904Z,12.13
2018-07-24T07:50:49.291Z,13.03
2018-07-24T07:53:18.590Z,11.33
2018-07-24T07:55:47.990Z,12.50
2018-07-24T07:58:17.681Z,11.40
2018-07-24T08:00:47.623Z,11.57
2018-07-24T08:03:17.412Z,11.50
2018-07-24T08:05:46.872Z,11.33
2018-07-24T08:08:16.315Z,10.80
2018-07-24T08:10:45.872Z,10.63
2018-07-24T08:13:15.464Z,10.37
2018-07-24T08:15:45.151Z,9.40
2018-07-24T08:18:14.589Z,10.43
2018-07-24T08:20:44.128Z,9.63
2018-07-24T08:23:13.977Z,9.93
2018-07-24T08:25:43.557Z,9.60
2018-07-24T08:28:13.048Z,9.10
2018-07-24T08:30:42.558Z,9.43
2018-07-24T08:33:12.149Z,10.00
2018-07-24T08:35:41.740Z,9.00
2018-07-24T08:38:11.265Z,9.10
2018-07-24T08:40:40.481Z,9.30
2018-07-24T08:43:10.432Z,8.50
2018-07-24T08:45:40.550Z,8.77
2018-07-24T08:48:10.432Z,9.03
2018-07-24T08:50:39.588Z,8.33
2018-07-24T08:53:09.027Z,8.37
2018-07-24T08:55:38.657Z,8.30
2018-07-24T08:58:08.097Z,8.70
2018-07-24T09:00:37.886Z,8.90
2018-07-24T09:03:07.383Z,8.53
2018-07-24T09:05:37.005Z,8.43
2018-07-24T09:08:07.528Z,8.67
2018-07-24T09:10:37.347Z,9.37
2018-07-24T09:13:06.813Z,8.23
2018-07-24T09:15:36.179Z,8.47
2018-07-24T09:18:05.896Z,7.92
2018-07-24T09:20:35.441Z,8.40
2018-07-24T09:23:05.276Z,8.33
2018-07-24T09:25:34.691Z,8.60
2018-07-24T09:28:04.242Z,7.28
2018-07-24T09:30:33.709Z,8.15
2018-07-24T09:33:03.347Z,7.17
2018-07-24T09:35:32.970Z,7.70
2018-07-24T09:38:02.566Z,8.30
2018-07-24T09:40:32.258Z,7.72
2018-07-24T09:43:01.641Z,8.40
2018-07-24T09:45:31.381Z,7.30
2018-07-24T09:48:00.897Z,6.83
2018-07-24T09:50:30.552Z,7.50
2018-07-24T09:52:59.941Z,7.05
2018-07-24T09:55:29.452Z,6.70
2018-07-24T09:57:59.272Z,6.50
2018-07-24T10:00:33.856Z,7.53
2018-07-24T10:03:03.416Z,5.95
2018-07-24T10:05:32.965Z,6.35
2018-07-24T10:08:02.713Z,6.80
2018-07-24T10:10:32.279Z,6.17
2018-07-24T10:13:02.460Z,6.30
2018-07-24T10:15:31.865Z,5.80
2018-07-24T10:18:01.705Z,5.72
2018-07-24T10:20:31.541Z,6.03
2018-07-24T10:23:01.147Z,5.60
2018-07-24T10:25:30.714Z,5.42
2018-07-24T10:28:00.358Z,5.40
2018-07-24T10:30:29.951Z,5.37
2018-07-24T10:32:59.499Z,5.65
2018-07-24T10:35:29.251Z,5.12
2018-07-24T10:37:58.752Z,5.40
2018-07-24T10:40:28.371Z,6.10
2018-07-24T10:42:58.266Z,6.33
2018-07-24T10:45:27.851Z,6.62
2018-07-24T10:47:57.842Z,6.78
2018-07-24T10:50:27.575Z,6.55
2018-07-24T10:52:57.320Z,5.90
2018-07-24T10:55:27.084Z,6.60
2018-07-24T10:57:56.593Z,6.40
2018-07-24T11:00:26.325Z,6.83
2018-07-24T11:02:55.969Z,6.05
2018-07-24T11:05:26.148Z,6.20
2018-07-24T11:07:56.715Z,6.33
2018-07-24T11:10:26.351Z,6.60
2018-07-24T11:12:56.013Z,6.78
2018-07-24T11:15:25.632Z,6.35
2018-07-24T11:17:55.187Z,6.30
2018-07-24T11:20:24.691Z,6.97
2018-07-24T11:22:54.256Z,6.97
2018-07-24T11:25:24.180Z,7.10
2018-07-24T11:27:54.305Z,6.67
2018-07-24T11:30:24.445Z,7.22
2018-07-24T11:32:54.032Z,6.65
2018-07-24T11:35:23.507Z,6.03
2018-07-24T11:37:53.123Z,5.62
2018-07-24T11:40:22.889Z,6.15
2018-07-24T11:42:52.401Z,7.05
2018-07-24T11:45:22.039Z,6.28
2018-07-24T11:47:51.699Z,5.72
2018-07-24T11:50:21.457Z,6.30
2018-07-24T11:52:51.061Z,6.53
2018-07-24T11:55:20.637Z,6.42
2018-07-24T11:57:50.356Z,6.67
2018-07-24T12:00:20.039Z,6.20
2018-07-24T12:02:49.851Z,6.87
2018-07-24T12:05:19.421Z,6.12
2018-07-24T12:07:49.823Z,6.47
2018-07-24T12:10:20.031Z,6.40
2018-07-24T12:12:50.149Z,6.90
2018-07-24T12:15:19.783Z,6.55
2018-07-24T12:17:49.972Z,7.37
2018-07-24T12:20:19.844Z,6.72
2018-07-24T12:22:49.825Z,6.70
2018-07-24T12:25:19.759Z,7.47
2018-07-24T12:27:49.605Z,6.70
2018-07-24T12:30:19.303Z,6.87
2018-07-24T12:32:49.279Z,7.10
2018-07-24T12:35:19.133Z,6.95
2018-07-24T12:37:49.435Z,6.67
2018-07-24T12:40:19.257Z,6.85
2018-07-24T12:42:48.918Z,6.25
2018-07-24T12:45:18.833Z,6.95
2018-07-24T12:47:48.809Z,6.62
2018-07-24T12:50:18.874Z,6.83
2018-07-24T12:52:49.168Z,6.80
2018-07-24T12:55:18.772Z,7.58
2018-07-24T12:57:48.900Z,7.47
2018-07-24T13:00:18.567Z,7.20
2018-07-24T13:02:47.992Z,7.00
2018-07-24T13:05:17.650Z,7.30
2018-07-24T13:07:50.140Z,7.35
2018-07-24T13:10:19.655Z,7.35
2018-07-24T13:12:49.134Z,7.45
2018-07-24T13:15:19.603Z,7.58
2018-07-24T13:17:49.172Z,8.20
2018-07-24T13:20:18.567Z,7.65
2018-07-24T13:22:48.712Z,8.33
2018-07-24T13:25:18.485Z,8.30
2018-07-24T13:27:48.418Z,7.85
2018-07-24T13:30:17.852Z,7.53
2018-07-24T13:32:47.348Z,8.00
2018-07-24T13:35:16.899Z,8.00
2018-07-24T13:37:46.650Z,7.70
2018-07-24T13:40:16.851Z,7.37
2018-07-24T13:42:46.440Z,8.28
2018-07-24T13:45:15.841Z,7.92
2018-07-24T13:47:45.205Z,7.87
2018-07-24T13:50:17.801Z,7.87
2018-07-24T13:52:47.439Z,7.72
2018-07-24T13:55:16.816Z,8.10
2018-07-24T13:57:46.413Z,8.28
2018-07-24T14:00:16.139Z,8.15
2018-07-24T14:02:45.435Z,7.72
2018-07-24T14:05:14.961Z,7.53
2018-07-24T14:07:44.739Z,7.55
2018-07-24T14:10:15.484Z,8.15
2018-07-24T14:12:45.486Z,7.67
2018-07-24T14:15:15.033Z,8.05
2018-07-24T14:17:44.640Z,7.80
2018-07-24T14:20:14.225Z,7.90
2018-07-24T14:22:43.609Z,8.00
2018-07-24T14:25:13.100Z,8.30
2018-07-24T14:27:42.786Z,8.95
2018-07-24T14:30:12.471Z,8.40
2018-07-24T14:32:42.253Z,8.15
2018-07-24T14:35:12.029Z,8.80
2018-07-24T14:37:41.563Z,8.15
2018-07-24T14:40:10.940Z,8.40
2018-07-24T14:42:40.656Z,8.75
2018-07-24T14:45:10.094Z,7.87
2018-07-24T14:47:39.628Z,8.33
2018-07-24T14:50:09.073Z,7.65
2018-07-24T14:52:38.572Z,8.85
2018-07-24T14:55:08.211Z,8.33
2018-07-24T14:57:38.083Z,8.75
2018-07-24T15:00:08.044Z,8.48
2018-07-24T15:02:37.373Z,8.73
2018-07-24T15:05:07.119Z,7.78
2018-07-24T15:07:36.490Z,8.50
2018-07-24T15:10:06.119Z,7.55
2018-07-24T15:12:35.535Z,8.28
2018-07-24T15:15:05.261Z,7.65
2018-07-24T15:17:34.437Z,7.28
2018-07-24T15:20:05.370Z,7.72
2018-07-24T15:22:34.805Z,8.13
2018-07-24T15:25:04.114Z,8.10
2018-07-24T15:27:33.663Z,8.05
2018-07-24T15:30:02.854Z,7.97
2018-07-24T15:32:32.398Z,7.78
2018-07-24T15:35:01.930Z,8.03
2018-07-24T15:37:31.477Z,8.53
2018-07-24T15:40:00.798Z,7.92
2018-07-24T15:42:30.103Z,8.68
2018-07-24T15:44:59.472Z,7.60
2018-07-24T15:47:28.832Z,8.73
2018-07-24T15:49:58.671Z,8.40
2018-07-24T15:52:28.215Z,8.05
2018-07-24T15:54:57.353Z,7.80
2018-07-24T15:57:26.835Z,8.00
2018-07-24T15:59:55.973Z,8.08
2018-07-24T16:02:25.524Z,7.00
2018-07-24T16:04:54.800Z,8.25
2018-07-24T16:07:24.315Z,8.13
2018-07-24T16:09:53.676Z,7.85
2018-07-24T16:12:23.714Z,8.23
2018-07-24T16:14:53.078Z,8.18
2018-07-24T16:17:22.352Z,8.23
2018-07-24T16:19:51.820Z,8.38
2018-07-24T16:22:21.199Z,7.83
2018-07-24T16:24:50.355Z,7.80
2018-07-24T16:27:19.522Z,7.95
2018-07-24T16:29:49.281Z,8.13
2018-07-24T16:32:18.533Z,7.45
2018-07-24T16:34:47.831Z,7.65
2018-07-24T16:37:17.232Z,8.75
2018-07-24T16:39:46.492Z,8.00
2018-07-24T16:42:15.742Z,7.30
2018-07-24T16:44:44.820Z,7.72
2018-07-24T16:47:14.087Z,8.25
2018-07-24T16:49:43.588Z,8.15
2018-07-24T16:52:12.941Z,7.35
2018-07-24T16:54:42.328Z,7.47
2018-07-24T16:57:11.548Z,7.17
2018-07-24T16:59:40.812Z,7.35
2018-07-24T17:02:10.436Z,7.60
2018-07-24T17:04:39.680Z,7.03
2018-07-24T17:07:08.912Z,7.35
2018-07-24T17:09:39.002Z,7.70
2018-07-24T17:12:09.051Z,7.03
2018-07-24T17:14:38.319Z,6.90
2018-07-24T17:17:07.574Z,6.70
2018-07-24T17:19:36.742Z,6.72
2018-07-24T17:22:06.007Z,7.00
2018-07-24T17:24:35.372Z,6.90
2018-07-24T17:27:04.733Z,7.30
2018-07-24T17:29:33.876Z,7.05
2018-07-24T17:32:03.180Z,7.25
2018-07-24T17:34:32.304Z,7.17
2018-07-24T17:37:01.559Z,7.75
2018-07-24T17:39:30.869Z,7.12
2018-07-24T17:42:00.061Z,7.45
2018-07-24T17:44:29.243Z,6.58
2018-07-24T17:46:58.594Z,6.70
2018-07-24T17:49:27.840Z,7.00
2018-07-24T17:51:57.206Z,6.60
2018-07-24T17:54:26.330Z,6.50
2018-07-24T17:56:55.600Z,6.67
2018-07-24T17:59:24.789Z,7.08
2018-07-24T18:01:54.174Z,7.37
2018-07-24T18:04:23.279Z,7.12
2018-07-24T18:06:52.636Z,6.72
2018-07-24T18:09:21.880Z,7.12
2018-07-24T18:11:51.148Z,6.78
2018-07-24T18:14:20.317Z,6.80
2018-07-24T18:16:49.706Z,7.03
2018-07-24T18:19:18.758Z,6.70
2018-07-24T18:21:47.762Z,6.55
2018-07-24T18:24:16.743Z,6.83
2018-07-24T18:26:45.800Z,6.50
2018-07-24T18:29:14.828Z,6.42
2018-07-24T18:31:44.164Z,6.58
2018-07-24T18:34:13.228Z,6.20
2018-07-24T18:36:42.408Z,7.60
2018-07-24T18:39:11.667Z,6.72
2018-07-24T18:41:40.886Z,6.30
2018-07-24T18:44:09.880Z,6.20
2018-07-24T18:46:38.880Z,7.00
2018-07-24T18:49:08.007Z,6.72
2018-07-24T18:51:37.192Z,7.35
2018-07-24T18:54:06.574Z,7.10
2018-07-24T18:56:35.547Z,6.85
2018-07-24T18:59:04.953Z,7.03
2018-07-24T19:01:34.132Z,7.42
2018-07-24T19:04:03.187Z,7.62
2018-07-24T19:06:32.296Z,7.28
2018-07-24T19:09:01.387Z,8.18
2018-07-24T19:11:30.512Z,8.00
2018-07-24T19:14:00.312Z,7.62
2018-07-24T19:16:29.418Z,7.67
2018-07-24T19:18:58.622Z,8.08
2018-07-24T19:21:27.615Z,7.35
2018-07-24T19:23:56.780Z,7.80
2018-07-24T19:26:25.743Z,7.92
2018-07-24T19:28:54.794Z,8.30
2018-07-24T19:31:23.820Z,7.95
2018-07-24T19:33:52.736Z,8.03
2018-07-24T19:36:21.877Z,7.58
2018-07-24T19:38:50.815Z,7.60
2018-07-24T19:41:19.920Z,8.30
2018-07-24T19:43:48.989Z,8.38
2018-07-24T19:46:18.032Z,7.90
2018-07-24T19:48:47.113Z,7.67
2018-07-24T19:51:16.132Z,8.08
2018-07-24T19:53:44.804Z,7.65
2018-07-24T19:56:14.036Z,8.08
2018-07-24T19:58:43.086Z,8.05
2018-07-24T20:01:12.071Z,8.18
2018-07-24T20:03:41.105Z,7.87
2018-07-24T20:06:10.119Z,8.00
2018-07-24T20:08:39.141Z,8.60
2018-07-24T20:11:08.220Z,7.72
2018-07-24T20:13:37.289Z,8.25
2018-07-24T20:16:06.307Z,8.15
2018-07-24T20:18:35.366Z,8.05
2018-07-24T20:21:04.562Z,8.10
2018-07-24T20:23:33.704Z,7.97
2018-07-24T20:26:02.892Z,8.08
2018-07-24T20:28:32.077Z,8.48
2018-07-24T20:31:01.124Z,8.85
2018-07-24T20:33:30.129Z,8.85
2018-07-24T20:35:59.276Z,8.08
2018-07-24T20:38:28.350Z,9.30
2018-07-24T20:40:57.308Z,8.93
2018-07-24T20:43:26.304Z,9.23
2018-07-24T20:45:55.526Z,9.47
2018-07-24T20:48:24.849Z,9.63
2018-07-24T20:50:53.824Z,8.83
2018-07-24T20:53:22.843Z,9.65
2018-07-24T20:55:51.871Z,9.73
2018-07-24T20:58:23.846Z,9.10
2018-07-24T21:00:52.806Z,9.53
2018-07-24T21:03:22.057Z,9.60
2018-07-24T21:05:51.056Z,9.77
2018-07-24T21:08:20.216Z,9.63
2018-07-24T21:10:49.140Z,10.40
2018-07-24T21:13:18.449Z,9.10
2018-07-24T21:15:47.464Z,8.97
2018-07-24T21:18:16.624Z,10.00
2018-07-24T21:20:45.596Z,10.20
2018-07-24T21:23:14.900Z,9.57
2018-07-24T21:25:44.866Z,10.00
2018-07-24T21:28:13.902Z,9.30
2018-07-24T21:30:42.601Z,9.63
2018-07-24T21:33:11.715Z,9.00
2018-07-24T21:35:40.840Z,9.30
2018-07-24T21:38:09.824Z,9.93
2018-07-24T21:40:39.007Z,9.90
2018-07-24T21:43:08.029Z,9.37
2018-07-24T21:45:36.993Z,9.60
2018-07-24T21:48:06.004Z,9.83
2018-07-24T21:50:35.078Z,9.63
2018-07-24T21:53:04.211Z,9.90
2018-07-24T21:55:33.284Z,9.40
2018-07-24T21:58:02.454Z,10.00
2018-07-24T22:00:37.108Z,10.20
2018-07-24T22:03:07.827Z,10.13
2018-07-24T22:05:36.834Z,10.87
2018-07-24T22:08:05.993Z,9.90
2018-07-24T22:10:34.959Z,10.10
2018-07-24T22:13:03.971Z,10.23
2018-07-24T22:15:33.049Z,10.20
2018-07-24T22:18:02.109Z,10.63
2018-07-24T22:20:31.223Z,9.87
2018-07-24T22:23:00.216Z,9.83
2018-07-24T22:25:29.186Z,10.37
2018-07-24T22:27:58.439Z,10.27
2018-07-24T22:30:27.160Z,10.13
2018-07-24T22:32:56.361Z,10.30
2018-07-24T22:35:25.381Z,9.50
2018-07-24T22:37:54.519Z,10.00
2018-07-24T22:40:23.577Z,9.83
2018-07-24T22:42:52.554Z,10.47
2018-07-24T22:45:21.619Z,9.23
2018-07-24T22:47:50.665Z,9.80
2018-07-24T22:50:19.719Z,9.37
2018-07-24T22:52:48.718Z,10.17
2018-07-24T22:55:17.918Z,9.43
2018-07-24T22:57:47.044Z,10.23
2018-07-24T23:00:16.208Z,10.00
2018-07-24T23:02:45.155Z,10.00
2018-07-24T23:05:14.337Z,10.73
2018-07-24T23:07:43.432Z,9.37
2018-07-24T23:10:12.551Z,9.80
2018-07-24T23:12:41.647Z,9.87
2018-07-24T23:15:17.382Z,10.00
2018-07-24T23:17:46.444Z,9.63
2018-07-24T23:20:15.571Z,9.73
2018-07-24T23:22:44.667Z,10.03
2018-07-24T23:25:13.891Z,10.07
2018-07-24T23:27:42.974Z,10.27
2018-07-24T23:30:11.997Z,9.83
2018-07-24T23:32:41.174Z,10.37
2018-07-24T23:35:10.174Z,9.77
2018-07-24T23:37:39.180Z,10.03
2018-07-24T23:40:08.288Z,10.10
2018-07-24T23:42:37.475Z,10.33
2018-07-24T23:45:06.664Z,9.63
2018-07-24T23:47:35.954Z,10.13
2018-07-24T23:50:05.061Z,10.53
2018-07-24T23:52:34.027Z,9.80
2018-07-24T23:55:03.065Z,9.93
2018-07-24T23:57:32.080Z,10.63
